createdAt,value
2018-07-07T00:00:50.395Z,153.27
2018-07-07T00:03:18.869Z,153.97
2018-07-07T00:05:47.330Z,46.13
2018-07-07T00:08:15.868Z,35.90
2018-07-07T00:10:44.603Z,80.63
2018-07-07T00:13:13.142Z,52.70
2018-07-07T00:15:41.666Z,28.10
2018-07-07T00:18:10.240Z,25.23
2018-07-07T00:20:38.738Z,30.07
2018-07-07T00:23:07.321Z,25.93
2018-07-07T00:25:35.768Z,26.77
2018-07-07T00:28:04.368Z,28.10
2018-07-07T00:30:32.856Z,26.90
2018-07-07T00:33:01.393Z,27.13
2018-07-07T00:35:29.858Z,30.13
2018-07-07T00:37:58.281Z,31.83
2018-07-07T00:40:26.918Z,32.73
2018-07-07T00:43:01.677Z,30.00
2018-07-07T00:45:30.203Z,32.93
2018-07-07T00:47:58.701Z,42.30
2018-07-07T00:50:27.250Z,36.37
2018-07-07T00:52:55.701Z,36.33
2018-07-07T00:55:24.222Z,45.13
2018-07-07T00:57:52.742Z,42.93
2018-07-07T01:00:22.058Z,41.53
2018-07-07T01:02:50.512Z,40.23
2018-07-07T01:05:30.155Z,42.87
2018-07-07T01:07:59.418Z,41.13
2018-07-07T01:10:27.833Z,42.60
2018-07-07T01:12:56.284Z,50.07
2018-07-07T01:15:24.779Z,52.57
2018-07-07T01:17:53.262Z,46.30
2018-07-07T01:20:21.692Z,49.83
2018-07-07T01:22:50.160Z,55.93
2018-07-07T01:25:18.621Z,55.13
2018-07-07T01:27:47.021Z,48.43
2018-07-07T01:30:15.466Z,50.07
2018-07-07T01:32:43.924Z,55.57
2018-07-07T01:35:12.384Z,54.23
2018-07-07T01:37:40.919Z,55.90
2018-07-07T01:40:09.367Z,52.60
2018-07-07T01:42:37.892Z,52.93
2018-07-07T01:45:06.349Z,53.03
2018-07-07T01:47:35.147Z,46.70
2018-07-07T01:50:03.322Z,50.90
2018-07-07T01:52:31.883Z,46.67
2018-07-07T01:55:00.280Z,46.53
2018-07-07T01:57:28.759Z,45.77
2018-07-07T01:59:57.201Z,50.90
2018-07-07T02:02:25.786Z,50.63
2018-07-07T02:04:54.298Z,53.53
2018-07-07T02:07:22.750Z,53.07
2018-07-07T02:09:51.279Z,52.10
2018-07-07T02:12:19.797Z,47.30
2018-07-07T02:14:48.301Z,53.23
2018-07-07T02:17:16.769Z,46.23
2018-07-07T02:19:45.247Z,49.73
2018-07-07T02:22:19.497Z,51.07
2018-07-07T02:24:48.615Z,45.30
2018-07-07T02:27:17.123Z,46.17
2018-07-07T02:29:45.905Z,47.80
2018-07-07T02:32:14.432Z,49.63
2018-07-07T02:34:42.827Z,45.93
2018-07-07T02:37:11.242Z,51.10
2018-07-07T02:39:39.650Z,46.13
2018-07-07T02:42:08.075Z,45.17
2018-07-07T02:44:36.508Z,45.70
2018-07-07T02:47:04.948Z,46.43
2018-07-07T02:49:33.808Z,49.00
2018-07-07T02:52:02.029Z,56.07
2018-07-07T02:54:30.477Z,51.27
2018-07-07T02:56:59.119Z,43.90
2018-07-07T02:59:27.560Z,48.57
2018-07-07T03:01:56.040Z,49.03
2018-07-07T03:04:24.504Z,42.97
2018-07-07T03:06:53.045Z,41.70
2018-07-07T03:09:21.600Z,42.97
2018-07-07T03:11:50.247Z,40.93
2018-07-07T03:14:18.741Z,38.17
2018-07-07T03:16:47.161Z,40.97
2018-07-07T03:19:15.582Z,39.40
2018-07-07T03:21:44.101Z,98.57
2018-07-07T03:24:12.800Z,41.60
2018-07-07T03:26:41.212Z,40.67
2018-07-07T03:29:09.634Z,40.60
2018-07-07T03:31:38.106Z,36.97
2018-07-07T03:34:06.609Z,39.13
2018-07-07T03:36:35.000Z,45.97
2018-07-07T03:39:04.032Z,42.73
2018-07-07T03:41:32.481Z,44.47
2018-07-07T03:44:00.884Z,36.30
2018-07-07T03:46:29.384Z,36.93
2018-07-07T03:48:57.893Z,35.60
2018-07-07T03:51:26.410Z,33.43
2018-07-07T03:53:54.881Z,34.80
2018-07-07T03:56:23.414Z,35.80
2018-07-07T03:58:52.231Z,32.13
2018-07-07T04:01:20.760Z,30.13
2018-07-07T04:03:49.357Z,31.23
2018-07-07T04:06:17.841Z,31.70
2018-07-07T04:08:46.289Z,32.73
2018-07-07T04:11:14.728Z,30.73
2018-07-07T04:13:43.281Z,29.90
2018-07-07T04:16:11.875Z,24.23
2018-07-07T04:18:40.289Z,29.37
2018-07-07T04:21:08.717Z,26.27
2018-07-07T04:23:37.201Z,23.90
2018-07-07T04:26:05.681Z,26.80
2018-07-07T04:28:34.114Z,22.17
2018-07-07T04:31:02.536Z,22.23
2018-07-07T04:33:30.964Z,24.40
2018-07-07T04:35:59.410Z,20.10
2018-07-07T04:38:27.823Z,19.90
2018-07-07T04:40:56.263Z,20.67
2018-07-07T04:43:24.812Z,19.50
2018-07-07T04:45:53.409Z,18.07
2018-07-07T04:48:21.814Z,17.97
2018-07-07T04:50:51.061Z,20.97
2018-07-07T04:53:19.544Z,16.67
2018-07-07T04:55:48.023Z,17.87
2018-07-07T04:58:16.437Z,16.30
2018-07-07T05:00:44.873Z,17.53
2018-07-07T05:03:13.439Z,17.80
2018-07-07T05:05:41.976Z,17.40
2018-07-07T05:08:10.475Z,16.40
2018-07-07T05:10:38.899Z,17.27
2018-07-07T05:13:07.471Z,20.23
2018-07-07T05:15:36.063Z,15.07
2018-07-07T05:18:04.572Z,14.40
2018-07-07T05:20:33.077Z,19.70
2018-07-07T05:23:01.557Z,18.63
2018-07-07T05:25:30.049Z,32.50
2018-07-07T05:27:58.542Z,21.70
2018-07-07T05:30:26.980Z,17.23
2018-07-07T05:32:55.459Z,13.93
2018-07-07T05:35:23.966Z,11.17
2018-07-07T05:37:52.484Z,11.83
2018-07-07T05:40:20.964Z,11.87
2018-07-07T05:42:49.535Z,11.23
2018-07-07T05:45:18.135Z,10.90
2018-07-07T05:47:46.698Z,14.90
2018-07-07T05:50:15.184Z,10.17
2018-07-07T05:52:43.606Z,10.27
2018-07-07T05:55:12.149Z,9.83
2018-07-07T05:57:40.566Z,10.57
2018-07-07T06:00:09.045Z,14.57
2018-07-07T06:02:37.571Z,14.43
2018-07-07T06:05:06.221Z,10.10
2018-07-07T06:07:34.649Z,11.10
2018-07-07T06:10:03.214Z,10.03
2018-07-07T06:12:31.724Z,14.20
2018-07-07T06:15:00.180Z,13.77
2018-07-07T06:17:28.335Z,11.27
2018-07-07T06:19:56.907Z,10.40
2018-07-07T06:22:25.462Z,9.70
2018-07-07T06:24:54.016Z,9.87
2018-07-07T06:27:22.501Z,10.73
2018-07-07T06:29:50.979Z,10.60
2018-07-07T06:32:19.456Z,14.40
2018-07-07T06:34:47.887Z,9.77
2018-07-07T06:37:16.421Z,8.87
2018-07-07T06:39:44.839Z,8.30
2018-07-07T06:42:13.545Z,11.30
2018-07-07T06:44:41.999Z,8.73
2018-07-07T06:47:10.513Z,9.13
2018-07-07T06:49:38.932Z,9.57
2018-07-07T06:52:07.375Z,8.77
2018-07-07T06:54:35.851Z,9.17
2018-07-07T06:57:04.402Z,11.03
2018-07-07T06:59:32.890Z,8.93
2018-07-07T07:02:01.458Z,15.37
2018-07-07T07:04:30.009Z,9.77
2018-07-07T07:06:58.456Z,11.77
2018-07-07T07:09:26.897Z,10.70
2018-07-07T07:11:55.445Z,7.60
2018-07-07T07:14:24.010Z,7.90
2018-07-07T07:16:52.532Z,8.03
2018-07-07T07:19:21.022Z,7.30
2018-07-07T07:21:49.493Z,7.03
2018-07-07T07:24:18.125Z,6.60
2018-07-07T07:26:46.600Z,9.17
2018-07-07T07:29:15.123Z,5.93
2018-07-07T07:31:43.557Z,7.83
2018-07-07T07:34:12.170Z,7.77
2018-07-07T07:36:42.694Z,7.87
2018-07-07T07:39:11.555Z,5.23
2018-07-07T07:41:40.379Z,7.03
2018-07-07T07:44:08.896Z,6.67
2018-07-07T07:46:37.771Z,6.57
2018-07-07T07:49:07.012Z,9.00
2018-07-07T07:51:35.592Z,6.23
2018-07-07T07:54:04.257Z,5.23
2018-07-07T07:56:32.712Z,5.30
2018-07-07T07:59:01.187Z,5.47
2018-07-07T08:01:29.620Z,5.97
2018-07-07T08:03:58.283Z,8.87
2018-07-07T08:06:26.755Z,9.20
2018-07-07T08:08:55.234Z,4.83
2018-07-07T08:11:23.781Z,6.47
2018-07-07T08:13:52.570Z,5.63
2018-07-07T08:16:21.095Z,6.93
2018-07-07T08:18:49.651Z,6.63
2018-07-07T08:21:18.118Z,6.20
2018-07-07T08:23:46.601Z,5.27
2018-07-07T08:26:15.108Z,8.00
2018-07-07T08:28:43.668Z,9.27
2018-07-07T08:31:12.230Z,7.03
2018-07-07T08:33:40.944Z,5.57
2018-07-07T08:36:09.497Z,8.37
2018-07-07T08:38:37.998Z,5.50
2018-07-07T08:41:06.489Z,6.17
2018-07-07T08:43:35.093Z,7.37
2018-07-07T08:46:03.625Z,6.70
2018-07-07T08:48:32.241Z,8.10
2018-07-07T08:51:00.795Z,7.67
2018-07-07T08:53:29.334Z,6.03
2018-07-07T08:55:57.822Z,8.87
2018-07-07T08:58:26.315Z,8.90
2018-07-07T09:00:54.883Z,6.87
2018-07-07T09:03:23.511Z,6.53
2018-07-07T09:05:52.104Z,6.87
2018-07-07T09:08:20.745Z,6.53
2018-07-07T09:10:49.636Z,10.00
2018-07-07T09:13:18.159Z,8.53
2018-07-07T09:15:46.703Z,7.30
2018-07-07T09:18:15.178Z,6.13
2018-07-07T09:20:43.662Z,7.20
2018-07-07T09:23:12.139Z,6.47
2018-07-07T09:25:40.643Z,4.80
2018-07-07T09:28:09.117Z,5.13
2018-07-07T09:30:37.572Z,5.27
2018-07-07T09:33:06.102Z,5.80
2018-07-07T09:35:34.692Z,7.53
2018-07-07T09:38:03.213Z,8.80
2018-07-07T09:40:31.762Z,5.17
2018-07-07T09:43:00.340Z,4.73
2018-07-07T09:45:29.107Z,7.17
2018-07-07T09:47:57.756Z,6.37
2018-07-07T09:50:26.261Z,7.63
2018-07-07T09:52:54.885Z,5.20
2018-07-07T09:55:23.412Z,5.20
2018-07-07T09:57:51.952Z,7.30
2018-07-07T10:00:25.668Z,7.80
2018-07-07T10:02:54.301Z,5.30
2018-07-07T10:05:22.838Z,9.10
2018-07-07T10:07:51.359Z,9.93
2018-07-07T10:10:19.789Z,7.60
2018-07-07T10:12:48.374Z,6.33
2018-07-07T10:15:16.848Z,6.37
2018-07-07T10:17:45.351Z,5.33
2018-07-07T10:20:13.833Z,4.77
2018-07-07T10:22:42.391Z,6.43
2018-07-07T10:25:10.881Z,4.83
2018-07-07T10:27:39.429Z,6.80
2018-07-07T10:30:08.446Z,5.03
2018-07-07T10:32:36.959Z,6.13
2018-07-07T10:35:05.450Z,4.73
2018-07-07T10:37:34.025Z,5.53
2018-07-07T10:40:02.522Z,8.17
2018-07-07T10:42:31.024Z,5.90
2018-07-07T10:44:59.203Z,4.90
2018-07-07T10:47:27.740Z,5.07
2018-07-07T10:49:56.245Z,6.20
2018-07-07T10:52:24.757Z,6.03
2018-07-07T10:54:53.278Z,4.43
2018-07-07T10:57:21.744Z,4.67
2018-07-07T10:59:50.636Z,3.97
2018-07-07T11:02:19.153Z,4.70
2018-07-07T11:04:47.669Z,7.90
2018-07-07T11:07:16.231Z,3.70
2018-07-07T11:09:44.829Z,4.47
2018-07-07T11:12:13.227Z,5.03
2018-07-07T11:14:41.752Z,4.83
2018-07-07T11:17:10.254Z,5.07
2018-07-07T11:19:38.860Z,5.27
2018-07-07T11:22:07.348Z,4.10
2018-07-07T11:24:35.996Z,4.60
2018-07-07T11:27:04.674Z,9.30
2018-07-07T11:29:33.225Z,7.03
2018-07-07T11:32:01.782Z,4.30
2018-07-07T11:34:30.629Z,6.07
2018-07-07T11:36:59.161Z,6.17
2018-07-07T11:39:27.748Z,3.60
2018-07-07T11:41:56.583Z,7.80
2018-07-07T11:44:25.171Z,7.30
2018-07-07T11:46:53.835Z,4.97
2018-07-07T11:49:22.461Z,3.70
2018-07-07T11:51:51.001Z,5.07
2018-07-07T11:54:19.598Z,6.30
2018-07-07T11:56:48.100Z,6.83
2018-07-07T11:59:16.730Z,4.67
2018-07-07T12:01:45.518Z,4.83
2018-07-07T12:04:14.093Z,5.50
2018-07-07T12:06:42.835Z,4.37
2018-07-07T12:09:11.453Z,4.03
2018-07-07T12:11:40.041Z,3.77
2018-07-07T12:14:08.683Z,3.90
2018-07-07T12:16:37.187Z,3.60
2018-07-07T12:19:05.387Z,4.40
2018-07-07T12:21:33.901Z,4.40
2018-07-07T12:24:02.416Z,3.83
2018-07-07T12:26:30.864Z,4.23
2018-07-07T12:28:59.538Z,3.67
2018-07-07T12:31:28.023Z,5.43
2018-07-07T12:33:56.546Z,3.40
2018-07-07T12:36:24.987Z,4.20
2018-07-07T12:38:53.544Z,4.00
2018-07-07T12:41:22.230Z,4.00
2018-07-07T12:43:50.882Z,5.60
2018-07-07T12:46:19.315Z,3.77
2018-07-07T12:48:47.777Z,7.30
2018-07-07T12:51:16.253Z,5.77
2018-07-07T12:53:44.774Z,3.40
2018-07-07T12:56:13.291Z,6.07
2018-07-07T12:58:41.865Z,13.33
2018-07-07T13:01:10.339Z,4.37
2018-07-07T13:03:39.176Z,6.37
2018-07-07T13:06:07.655Z,6.50
2018-07-07T13:08:36.181Z,4.27
2018-07-07T13:11:04.727Z,4.60
2018-07-07T13:13:33.254Z,6.20
2018-07-07T13:16:01.784Z,4.43
2018-07-07T13:18:30.331Z,7.80
2018-07-07T13:20:59.087Z,4.07
2018-07-07T13:23:27.643Z,4.63
2018-07-07T13:25:56.353Z,6.90
2018-07-07T13:28:24.967Z,4.53
2018-07-07T13:30:53.588Z,8.17
2018-07-07T13:33:22.118Z,6.17
2018-07-07T13:35:50.587Z,4.10
2018-07-07T13:38:21.893Z,6.40
2018-07-07T13:40:50.358Z,3.40
2018-07-07T13:43:18.916Z,4.17
2018-07-07T13:45:47.408Z,4.20
2018-07-07T13:48:15.938Z,4.40
2018-07-07T13:50:44.416Z,5.73
2018-07-07T13:53:13.021Z,6.73
2018-07-07T13:55:41.549Z,3.50
2018-07-07T13:58:10.150Z,4.97
2018-07-07T14:00:38.715Z,3.87
2018-07-07T14:03:07.185Z,5.30
2018-07-07T14:05:35.813Z,4.00
2018-07-07T14:08:04.369Z,4.10
2018-07-07T14:10:32.944Z,3.80
2018-07-07T14:13:01.404Z,5.00
2018-07-07T14:15:29.950Z,5.23
2018-07-07T14:17:58.506Z,4.60
2018-07-07T14:20:27.042Z,6.83
2018-07-07T14:22:55.917Z,4.17
2018-07-07T14:25:24.460Z,9.27
2018-07-07T14:27:52.981Z,3.73
2018-07-07T14:30:21.474Z,4.27
2018-07-07T14:32:50.012Z,4.80
2018-07-07T14:35:18.545Z,6.83
2018-07-07T14:37:47.068Z,3.80
2018-07-07T14:40:15.558Z,7.10
2018-07-07T14:42:52.470Z,3.80
2018-07-07T14:45:30.507Z,4.23
2018-07-07T14:48:00.242Z,4.47
2018-07-07T14:50:29.152Z,6.07
2018-07-07T14:52:57.868Z,6.80
2018-07-07T14:55:27.674Z,5.50
2018-07-07T14:57:56.318Z,5.50
2018-07-07T15:00:26.185Z,4.53
2018-07-07T15:02:55.996Z,3.67
2018-07-07T15:05:24.555Z,5.93
2018-07-07T15:07:53.233Z,4.73
2018-07-07T15:10:21.834Z,5.03
2018-07-07T15:12:50.423Z,4.20
2018-07-07T15:15:19.144Z,4.63
2018-07-07T15:17:47.959Z,4.40
2018-07-07T15:20:16.541Z,3.40
2018-07-07T15:22:45.403Z,4.53
2018-07-07T15:25:13.863Z,3.30
2018-07-07T15:27:42.489Z,3.73
2018-07-07T15:30:11.356Z,3.70
2018-07-07T15:32:39.814Z,5.93
2018-07-07T15:35:08.469Z,4.70
2018-07-07T15:37:37.035Z,4.30
2018-07-07T15:40:06.130Z,5.97
2018-07-07T15:42:34.715Z,3.70
2018-07-07T15:45:03.338Z,6.07
2018-07-07T15:47:31.849Z,3.83
2018-07-07T15:50:00.372Z,3.90
2018-07-07T15:52:28.893Z,6.83
2018-07-07T15:54:57.504Z,3.97
2018-07-07T15:57:26.146Z,5.27
2018-07-07T15:59:55.014Z,5.00
2018-07-07T16:02:23.587Z,4.43
2018-07-07T16:04:52.060Z,4.37
2018-07-07T16:07:20.573Z,3.93
2018-07-07T16:09:49.268Z,3.60
2018-07-07T16:12:17.782Z,3.87
2018-07-07T16:14:46.416Z,3.40
2018-07-07T16:17:15.344Z,4.43
2018-07-07T16:19:43.826Z,5.60
2018-07-07T16:22:12.342Z,6.10
2018-07-07T16:24:40.869Z,6.03
2018-07-07T16:27:09.429Z,3.70
2018-07-07T16:29:37.956Z,5.63
2018-07-07T16:32:06.371Z,5.50
2018-07-07T16:34:34.982Z,4.50
2018-07-07T16:37:03.524Z,3.80
2018-07-07T16:39:32.270Z,4.03
2018-07-07T16:42:00.882Z,8.40
2018-07-07T16:44:29.461Z,7.23
2018-07-07T16:46:57.786Z,5.00
2018-07-07T16:49:26.395Z,4.87
2018-07-07T16:51:55.040Z,4.47
2018-07-07T16:54:23.680Z,9.77
2018-07-07T16:56:52.462Z,6.77
2018-07-07T16:59:21.038Z,4.67
2018-07-07T17:01:50.814Z,3.93
2018-07-07T17:04:22.366Z,6.83
2018-07-07T17:06:51.374Z,3.37
2018-07-07T17:09:19.965Z,3.83
2018-07-07T17:11:50.088Z,5.13
2018-07-07T17:14:19.396Z,5.47
2018-07-07T17:16:48.037Z,4.60
2018-07-07T17:19:16.831Z,4.87
2018-07-07T17:21:46.237Z,4.03
2018-07-07T17:24:15.788Z,4.67
2018-07-07T17:26:45.413Z,3.90
2018-07-07T17:29:13.624Z,3.83
2018-07-07T17:31:42.366Z,5.07
2018-07-07T17:34:11.642Z,3.73
2018-07-07T17:36:40.444Z,8.00
2018-07-07T17:39:09.153Z,3.83
2018-07-07T17:41:38.054Z,4.23
2018-07-07T17:44:06.813Z,3.30
2018-07-07T17:46:35.526Z,4.20
2018-07-07T17:49:04.702Z,5.50
2018-07-07T17:51:33.416Z,3.87
2018-07-07T17:54:02.561Z,4.97
2018-07-07T17:56:31.118Z,3.53
2018-07-07T17:59:00.257Z,7.47
2018-07-07T18:01:28.915Z,3.30
2018-07-07T18:03:57.565Z,4.57
2018-07-07T18:06:26.212Z,4.53
2018-07-07T18:08:54.701Z,4.90
2018-07-07T18:11:23.272Z,6.33
2018-07-07T18:13:52.014Z,4.47
2018-07-07T18:16:20.705Z,4.77
2018-07-07T18:18:49.284Z,6.57
2018-07-07T18:21:18.262Z,4.67
2018-07-07T18:23:47.379Z,5.90
2018-07-07T18:26:16.328Z,4.60
2018-07-07T18:28:45.102Z,5.40
2018-07-07T18:31:13.916Z,3.80
2018-07-07T18:33:42.664Z,6.90
2018-07-07T18:36:11.466Z,5.17
2018-07-07T18:38:40.396Z,3.73
2018-07-07T18:41:09.383Z,3.40
2018-07-07T18:43:38.052Z,6.33
2018-07-07T18:46:06.882Z,4.77
2018-07-07T18:48:35.490Z,4.97
2018-07-07T18:51:04.163Z,4.03
2018-07-07T18:53:33.019Z,5.37
2018-07-07T18:56:01.726Z,4.13
2018-07-07T18:58:30.652Z,7.80
2018-07-07T19:00:59.907Z,4.13
2018-07-07T19:03:28.826Z,4.40
2018-07-07T19:05:57.932Z,7.90
2018-07-07T19:08:27.093Z,4.90
2018-07-07T19:10:55.898Z,6.03
2018-07-07T19:13:25.079Z,8.43
2018-07-07T19:15:54.327Z,6.93
2018-07-07T19:18:23.102Z,7.97
2018-07-07T19:20:57.264Z,4.73
2018-07-07T19:23:31.518Z,5.90
2018-07-07T19:26:05.538Z,5.90
2018-07-07T19:28:34.240Z,6.20
2018-07-07T19:31:02.893Z,9.87
2018-07-07T19:34:35.967Z,5.93
2018-07-07T19:37:10.088Z,50.07
2018-07-07T19:39:38.999Z,12.00
2018-07-07T19:42:07.788Z,15.07
2018-07-07T19:44:36.575Z,16.33
2018-07-07T19:47:05.436Z,4.97
2018-07-07T19:49:36.315Z,8.03
2018-07-07T19:52:05.467Z,53.63
2018-07-07T19:54:34.259Z,58.20
2018-07-07T19:57:03.351Z,21.83
2018-07-07T19:59:32.699Z,17.47
2018-07-07T20:02:01.544Z,38.17
2018-07-07T20:04:30.282Z,8.00
2018-07-07T20:06:59.032Z,13.17
2018-07-07T20:09:27.582Z,16.80
2018-07-07T20:11:56.216Z,22.77
2018-07-07T20:14:26.061Z,10.53
2018-07-07T20:17:03.445Z,8.43
2018-07-07T20:19:49.061Z,6.40
2018-07-07T20:22:17.993Z,13.33
2018-07-07T20:24:46.920Z,11.53
2018-07-07T20:27:21.145Z,6.37
2018-07-07T20:29:50.186Z,7.70
2018-07-07T20:32:24.538Z,7.50
2018-07-07T20:34:53.204Z,10.27
2018-07-07T20:37:21.800Z,13.03
2018-07-07T20:39:50.790Z,7.17
2018-07-07T20:42:19.596Z,6.77
2018-07-07T20:44:48.466Z,8.10
2018-07-07T20:47:17.397Z,7.47
2018-07-07T20:49:46.266Z,9.10
2018-07-07T20:52:15.264Z,8.57
2018-07-07T20:54:44.068Z,8.03
2018-07-07T20:57:13.294Z,8.40
2018-07-07T20:59:42.287Z,11.93
2018-07-07T21:02:11.348Z,9.60
2018-07-07T21:04:40.500Z,11.77
2018-07-07T21:07:09.315Z,10.27
2018-07-07T21:09:38.545Z,12.40
2018-07-07T21:12:07.361Z,8.37
2018-07-07T21:14:36.048Z,10.07
2018-07-07T21:17:04.997Z,8.57
2018-07-07T21:19:33.900Z,8.33
2018-07-07T21:22:02.861Z,9.10
2018-07-07T21:24:31.951Z,8.87
2018-07-07T21:27:00.823Z,9.83
2018-07-07T21:29:29.777Z,9.13
2018-07-07T21:32:05.019Z,9.10
2018-07-07T21:34:33.917Z,9.20
2018-07-07T21:37:02.686Z,13.00
2018-07-07T21:39:31.528Z,11.73
2018-07-07T21:42:00.176Z,10.83
2018-07-07T21:44:35.416Z,12.47
2018-07-07T21:47:04.240Z,10.67
2018-07-07T21:49:32.952Z,10.30
2018-07-07T21:52:01.644Z,10.43
2018-07-07T21:54:33.630Z,11.03
2018-07-07T21:57:02.270Z,10.63
2018-07-07T21:59:30.943Z,10.03
2018-07-07T22:02:05.104Z,9.73
2018-07-07T22:04:39.209Z,13.40
2018-07-07T22:07:13.779Z,21.00
2018-07-07T22:09:43.302Z,29.93
2018-07-07T22:12:11.933Z,199.30
2018-07-07T22:14:40.484Z,28.73
2018-07-07T22:17:09.224Z,47.63
2018-07-07T22:19:37.936Z,10.90
2018-07-07T22:22:09.516Z,11.70
2018-07-07T22:24:44.598Z,11.07
2018-07-07T22:27:14.396Z,13.30
2018-07-07T22:29:42.905Z,13.07
2018-07-07T22:32:16.687Z,36.87
2018-07-07T22:34:45.188Z,23.10
2018-07-07T22:37:13.712Z,11.17
2018-07-07T22:39:43.240Z,38.13
2018-07-07T22:42:13.944Z,15.97
2018-07-07T22:44:43.469Z,16.00
2018-07-07T22:47:11.987Z,14.07
2018-07-07T22:49:40.939Z,11.17
2018-07-07T22:52:10.395Z,16.00
2018-07-07T22:54:39.046Z,14.37
2018-07-07T22:57:07.577Z,14.57
2018-07-07T22:59:36.092Z,12.17
2018-07-07T23:02:04.709Z,14.90
2018-07-07T23:04:33.089Z,11.10
2018-07-07T23:07:01.944Z,11.33
2018-07-07T23:09:31.182Z,11.90
2018-07-07T23:11:59.758Z,11.93
2018-07-07T23:14:28.370Z,11.67
2018-07-07T23:17:00.242Z,12.53
2018-07-07T23:19:28.906Z,13.93
2018-07-07T23:21:57.901Z,12.03
2018-07-07T23:24:26.358Z,16.20
2018-07-07T23:26:54.958Z,12.13
2018-07-07T23:29:23.486Z,12.07
2018-07-07T23:31:52.105Z,12.53
2018-07-07T23:34:20.629Z,12.77
2018-07-07T23:36:49.140Z,17.00
2018-07-07T23:39:17.709Z,13.30
2018-07-07T23:41:46.285Z,14.67
2018-07-07T23:44:15.061Z,12.90
2018-07-07T23:46:43.552Z,13.50
2018-07-07T23:49:12.311Z,13.40
2018-07-07T23:51:41.041Z,14.33
2018-07-07T23:54:09.802Z,12.77
2018-07-07T23:56:38.329Z,13.63
2018-07-07T23:59:06.875Z,14.00
